^^
B2 Weather Station Historical Data
Daily Summary for November 13, 2018 Units:  English    Metric   Both
Daily Weekly Monthly Yearly Custom
  High: Low: Average:
Temperature: 28.2 °F 17.9 °F 22.9 °F
Dew Point: 21.0 °F 12.2 °F 15.4 °F
Humidity: 83% 59% 73%
Wind Speed: 13.8mph 0.0mph 6.9mph
Wind Gust: 9.3mph - -
Wind- - NW
Pressure: 30.56 in 30.36 in -
Precipitation: 0.00 in    
Historical Graphs
 
 
Tabular Data for November 13, 2018
Time Temperature Dew Point Pressure Wind Wind Speed Wind Gust Humidity Rainfall Rate (Hourly) solar
00:04 25.4 °F 21.0 °F 30.36 in NW 5.0 mph 3.6 mph 83% 0.00 in 0.00 W/m2
00:09 25.3 °F 20.9 °F 30.36 in North 8.1 mph 5.3 mph 83% 0.00 in 0.00 W/m2
00:14 25.2 °F 20.8 °F 30.36 in NNW 5.8 mph 5.1 mph 83% 0.00 in 0.00 W/m2
00:19 25.1 °F 20.7 °F 30.36 in NNW 9.2 mph 5.8 mph 83% 0.00 in 0.00 W/m2
00:24 24.9 °F 20.5 °F 30.36 in NNW 10.4 mph 4.2 mph 83% 0.00 in 0.00 W/m2
00:29 24.6 °F 20.2 °F 30.36 in NNW 6.0 mph 6.3 mph 83% 0.00 in 0.00 W/m2
00:34 24.3 °F 19.9 °F 30.36 in North 9.2 mph 5.0 mph 83% 0.00 in 0.00 W/m2
00:39 24.1 °F 19.4 °F 30.36 in NW 9.2 mph 7.5 mph 82% 0.00 in 0.00 W/m2
00:44 24.0 °F 19.0 °F 30.36 in North 10.4 mph 5.7 mph 81% 0.00 in 0.00 W/m2
00:49 23.8 °F 18.5 °F 30.36 in NNW 11.5 mph 6.4 mph 80% 0.00 in 0.00 W/m2
00:54 23.8 °F 18.5 °F 30.36 in NNW 6.9 mph 5.1 mph 80% 0.00 in 0.00 W/m2
00:59 23.6 °F 18.0 °F 30.36 in NNW 9.2 mph 5.8 mph 79% 0.00 in 0.00 W/m2
01:04 23.4 °F 17.8 °F 30.36 in North 8.1 mph 5.7 mph 79% 0.00 in 0.00 W/m2
01:09 23.3 °F 18.0 °F 30.36 in North 5.8 mph 5.0 mph 80% 0.00 in 0.00 W/m2
01:14 23.1 °F 17.8 °F 30.36 in NNW 5.8 mph 3.2 mph 80% 0.00 in 0.00 W/m2
01:19 23.0 °F 17.7 °F 30.36 in NNW 5.0 mph 3.7 mph 80% 0.00 in 0.00 W/m2
01:24 22.8 °F 17.8 °F 30.36 in NNW 3.5 mph 2.9 mph 81% 0.00 in 0.00 W/m2
01:29 22.7 °F 17.7 °F 30.36 in NNW 9.2 mph 4.9 mph 81% 0.00 in 0.00 W/m2
01:34 22.6 °F 17.4 °F 30.36 in North 5.8 mph 4.7 mph 80% 0.00 in 0.00 W/m2
01:39 22.5 °F 17.3 °F 30.36 in NNW 5.8 mph 4.4 mph 80% 0.00 in 0.00 W/m2
01:44 22.4 °F 17.2 °F 30.37 in NNW 6.9 mph 4.5 mph 80% 0.00 in 0.00 W/m2
01:49 22.4 °F 17.2 °F 30.37 in NNW 5.8 mph 5.4 mph 80% 0.00 in 0.00 W/m2
01:54 22.3 °F 17.1 °F 30.37 in North 6.9 mph 4.2 mph 80% 0.00 in 0.00 W/m2
01:59 22.2 °F 17.3 °F 30.37 in NW 7.0 mph 4.1 mph 81% 0.00 in 0.00 W/m2
02:04 22.2 °F 17.3 °F 30.37 in North 6.9 mph 3.9 mph 81% 0.00 in 0.00 W/m2
02:09 22.0 °F 17.1 °F 30.37 in NW 8.1 mph 4.0 mph 81% 0.00 in 0.00 W/m2
02:14 21.9 °F 17.0 °F 30.37 in NNW 9.2 mph 5.3 mph 81% 0.00 in 0.00 W/m2
02:19 21.8 °F 16.9 °F 30.37 in NW 6.9 mph 3.4 mph 81% 0.00 in 0.00 W/m2
02:24 21.7 °F 16.8 °F 30.37 in North 7.0 mph 5.7 mph 81% 0.00 in 0.00 W/m2
02:29 21.7 °F 16.5 °F 30.37 in NNW 11.5 mph 4.5 mph 80% 0.00 in 0.00 W/m2
02:34 21.8 °F 16.6 °F 30.37 in NW 10.4 mph 5.0 mph 80% 0.00 in 0.00 W/m2
02:39 21.7 °F 16.5 °F 30.37 in NW 10.4 mph 5.2 mph 80% 0.00 in 0.00 W/m2
02:44 21.7 °F 16.5 °F 30.37 in NNW 6.9 mph 4.3 mph 80% 0.00 in 0.00 W/m2
02:50 21.7 °F 16.5 °F 30.36 in North 6.9 mph 4.0 mph 80% 0.00 in 0.00 W/m2
02:54 21.7 °F 16.5 °F 30.37 in North 11.5 mph 4.1 mph 80% 0.00 in 0.00 W/m2
02:59 21.6 °F 16.4 °F 30.37 in NNW 8.1 mph 4.5 mph 80% 0.00 in 0.00 W/m2
03:04 21.6 °F 16.4 °F 30.36 in NNW 5.8 mph 4.9 mph 80% 0.00 in 0.00 W/m2
03:09 21.5 °F 16.3 °F 30.37 in NW 6.9 mph 3.9 mph 80% 0.00 in 0.00 W/m2
03:14 21.4 °F 16.2 °F 30.37 in NNW 5.8 mph 3.7 mph 80% 0.00 in 0.00 W/m2
03:19 21.3 °F 16.1 °F 30.37 in North 5.0 mph 2.3 mph 80% 0.00 in 0.00 W/m2
03:24 21.1 °F 16.2 °F 30.37 in NW 7.0 mph 4.4 mph 81% 0.00 in 0.00 W/m2
03:29 20.9 °F 16.0 °F 30.37 in NW 4.6 mph 1.9 mph 81% 0.00 in 0.00 W/m2
03:34 20.6 °F 15.7 °F 30.37 in NNW 6.9 mph 4.0 mph 81% 0.00 in 0.00 W/m2
03:39 20.4 °F 15.5 °F 30.37 in North 6.0 mph 3.6 mph 81% 0.00 in 0.00 W/m2
03:44 20.3 °F 15.7 °F 30.37 in NNW 4.6 mph 3.4 mph 82% 0.00 in 0.00 W/m2
03:49 20.2 °F 15.6 °F 30.37 in WNW 4.6 mph 3.3 mph 82% 0.00 in 0.00 W/m2
03:54 20.0 °F 15.4 °F 30.38 in NW 4.6 mph 3.0 mph 82% 0.00 in 0.00 W/m2
03:59 20.1 °F 15.5 °F 30.38 in NW 8.1 mph 3.7 mph 82% 0.00 in 0.00 W/m2
04:04 20.0 °F 15.4 °F 30.38 in NW 4.6 mph 3.9 mph 82% 0.00 in 0.00 W/m2
04:09 19.9 °F 15.3 °F 30.38 in NW 8.1 mph 5.0 mph 82% 0.00 in 0.00 W/m2
04:14 19.8 °F 15.2 °F 30.38 in NW 8.0 mph 5.7 mph 82% 0.00 in 0.00 W/m2
04:19 19.7 °F 15.1 °F 30.38 in NW 8.1 mph 4.2 mph 82% 0.00 in 0.00 W/m2
04:24 19.6 °F 15.0 °F 30.38 in North 3.5 mph 3.0 mph 82% 0.00 in 0.00 W/m2
04:29 19.5 °F 14.9 °F 30.38 in NW 5.8 mph 4.6 mph 82% 0.00 in 0.00 W/m2
04:34 19.7 °F 15.1 °F 30.39 in NW 6.9 mph 4.2 mph 82% 0.00 in 0.00 W/m2
04:39 19.7 °F 14.8 °F 30.39 in North 5.8 mph 1.9 mph 81% 0.00 in 0.00 W/m2
04:44 19.6 °F 15.0 °F 30.39 in North 6.9 mph 4.5 mph 82% 0.00 in 0.00 W/m2
04:49 19.7 °F 15.1 °F 30.39 in NW 3.5 mph 2.8 mph 82% 0.00 in 0.00 W/m2
04:54 19.6 °F 15.0 °F 30.39 in WNW 5.8 mph 3.3 mph 82% 0.00 in 0.00 W/m2
04:59 19.5 °F 14.6 °F 30.39 in WNW 3.5 mph 2.1 mph 81% 0.00 in 0.00 W/m2
05:04 19.3 °F 14.4 °F 30.39 in NW 4.0 mph 3.3 mph 81% 0.00 in 0.00 W/m2
05:09 19.3 °F 14.4 °F 30.39 in WNW 5.8 mph 3.3 mph 81% 0.00 in 0.00 W/m2
05:14 19.2 °F 14.3 °F 30.39 in NW 5.8 mph 3.2 mph 81% 0.00 in 0.00 W/m2
05:19 19.2 °F 14.3 °F 30.39 in NW 5.8 mph 3.9 mph 81% 0.00 in 0.00 W/m2
05:24 19.1 °F 14.2 °F 30.39 in WNW 6.0 mph 4.1 mph 81% 0.00 in 0.00 W/m2
05:29 19.4 °F 14.8 °F 30.39 in WNW 9.2 mph 4.9 mph 82% 0.00 in 0.00 W/m2
05:34 19.8 °F 14.9 °F 30.39 in WNW 11.5 mph 6.1 mph 81% 0.00 in 0.00 W/m2
05:39 19.9 °F 14.7 °F 30.39 in NNW 10.0 mph 6.3 mph 80% 0.00 in 0.00 W/m2
05:44 19.8 °F 14.0 °F 30.40 in NNW 11.5 mph 6.3 mph 78% 0.00 in 0.00 W/m2
05:49 19.7 °F 14.0 °F 30.40 in NNW 8.1 mph 6.6 mph 78% 0.00 in 0.00 W/m2
05:54 19.4 °F 13.7 °F 30.40 in NW 7.0 mph 5.0 mph 78% 0.00 in 0.00 W/m2
05:59 19.3 °F 13.6 °F 30.40 in NNW 10.4 mph 5.0 mph 78% 0.00 in 0.00 W/m2
06:04 19.1 °F 13.4 °F 30.40 in NW 6.9 mph 4.6 mph 78% 0.00 in 0.00 W/m2
06:09 18.9 °F 13.2 °F 30.41 in NNW 6.0 mph 4.7 mph 78% 0.00 in 0.00 W/m2
06:14 18.7 °F 13.0 °F 30.41 in North 8.1 mph 5.4 mph 78% 0.00 in 0.00 W/m2
06:19 18.6 °F 12.9 °F 30.41 in NW 10.4 mph 5.6 mph 78% 0.00 in 0.00 W/m2
06:24 18.5 °F 12.8 °F 30.41 in NW 9.2 mph 5.8 mph 78% 0.00 in 0.00 W/m2
06:29 18.4 °F 12.7 °F 30.42 in North 8.1 mph 4.1 mph 78% 0.00 in 0.00 W/m2
06:34 18.3 °F 12.6 °F 30.42 in North 9.2 mph 5.6 mph 78% 0.00 in 0.00 W/m2
06:39 18.1 °F 12.4 °F 30.42 in North 8.1 mph 5.8 mph 78% 0.00 in 5.00 W/m2
06:44 18.0 °F 12.3 °F 30.42 in NNW 5.8 mph 3.1 mph 78% 0.00 in 7.00 W/m2
06:49 17.9 °F 12.2 °F 30.42 in North 9.2 mph 4.3 mph 78% 0.00 in 9.00 W/m2
06:54 17.9 °F 12.5 °F 30.42 in WNW 8.1 mph 7.1 mph 79% 0.00 in 32.00 W/m2
06:59 17.9 °F 12.2 °F 30.42 in NW 8.1 mph 3.9 mph 78% 0.00 in 40.00 W/m2
07:04 17.9 °F 12.2 °F 30.42 in WNW 8.1 mph 6.0 mph 78% 0.00 in 53.00 W/m2
07:09 18.0 °F 12.3 °F 30.42 in North 8.1 mph 3.5 mph 78% 0.00 in 67.00 W/m2
07:14 18.0 °F 12.3 °F 30.43 in WNW 10.4 mph 4.9 mph 78% 0.00 in 79.00 W/m2
07:19 18.1 °F 12.4 °F 30.43 in North 8.1 mph 5.2 mph 78% 0.00 in 95.00 W/m2
07:24 18.2 °F 12.5 °F 30.43 in NW 8.1 mph 3.8 mph 78% 0.00 in 109.00 W/m2
07:29 18.3 °F 12.6 °F 30.43 in North 9.2 mph 5.2 mph 78% 0.00 in 123.00 W/m2
07:34 18.4 °F 12.7 °F 30.43 in WNW 10.4 mph 6.5 mph 78% 0.00 in 137.00 W/m2
07:39 18.6 °F 12.9 °F 30.43 in North 10.0 mph 4.8 mph 78% 0.00 in 151.00 W/m2
07:44 18.7 °F 13.0 °F 30.43 in NW 9.2 mph 5.4 mph 78% 0.00 in 167.00 W/m2
07:49 18.9 °F 13.2 °F 30.43 in WNW 8.1 mph 7.2 mph 78% 0.00 in 183.00 W/m2
07:54 19.1 °F 13.1 °F 30.43 in NW 11.5 mph 6.2 mph 77% 0.00 in 200.00 W/m2
07:59 19.2 °F 13.2 °F 30.44 in NNW 12.7 mph 5.1 mph 77% 0.00 in 213.00 W/m2
08:04 19.4 °F 13.4 °F 30.44 in NNW 11.5 mph 5.9 mph 77% 0.00 in 225.00 W/m2
08:09 19.5 °F 13.2 °F 30.44 in NNW 8.1 mph 8.0 mph 76% 0.00 in 241.00 W/m2
08:14 19.7 °F 13.4 °F 30.44 in NNW 10.0 mph 5.5 mph 76% 0.00 in 253.00 W/m2
08:19 19.9 °F 13.6 °F 30.45 in NNW 12.7 mph 4.6 mph 76% 0.00 in 269.00 W/m2
08:24 20.0 °F 13.3 °F 30.44 in North 10.4 mph 8.3 mph 75% 0.00 in 250.00 W/m2
08:29 20.2 °F 13.5 °F 30.44 in North 11.5 mph 7.0 mph 75% 0.00 in 267.00 W/m2
08:34 20.3 °F 13.6 °F 30.45 in North 9.2 mph 5.7 mph 75% 0.00 in 279.00 W/m2
08:39 20.5 °F 13.8 °F 30.45 in NNW 11.5 mph 7.0 mph 75% 0.00 in 348.00 W/m2
08:44 20.7 °F 13.7 °F 30.45 in NNW 11.5 mph 8.0 mph 74% 0.00 in 322.00 W/m2
08:49 20.7 °F 13.7 °F 30.45 in NW 11.5 mph 7.1 mph 74% 0.00 in 320.00 W/m2
08:54 20.9 °F 14.2 °F 30.45 in NNW 10.4 mph 8.1 mph 75% 0.00 in 352.00 W/m2
08:59 21.1 °F 14.1 °F 30.45 in NNW 11.5 mph 6.8 mph 74% 0.00 in 360.00 W/m2
09:04 21.2 °F 14.2 °F 30.45 in NNW 11.5 mph 5.9 mph 74% 0.00 in 281.00 W/m2
09:09 21.4 °F 14.4 °F 30.45 in NW 13.8 mph 8.7 mph 74% 0.00 in 394.00 W/m2
09:14 21.6 °F 14.6 °F 30.45 in North 10.4 mph 6.4 mph 74% 0.00 in 390.00 W/m2
09:19 21.8 °F 14.8 °F 30.45 in North 10.4 mph 7.4 mph 74% 0.00 in 401.00 W/m2
09:24 21.7 °F 14.4 °F 30.46 in North 11.5 mph 6.1 mph 73% 0.00 in 381.00 W/m2
09:29 21.8 °F 14.5 °F 30.46 in North 12.7 mph 8.8 mph 73% 0.00 in 469.00 W/m2
09:34 22.0 °F 14.7 °F 30.46 in NNW 13.8 mph 9.3 mph 73% 0.00 in 355.00 W/m2
09:39 22.2 °F 14.9 °F 30.46 in NNW 11.5 mph 6.9 mph 73% 0.00 in 487.00 W/m2
09:44 22.3 °F 14.3 °F 30.46 in NW 12.7 mph 7.8 mph 71% 0.00 in 401.00 W/m2
09:49 22.3 °F 14.6 °F 30.46 in WNW 11.5 mph 5.3 mph 72% 0.00 in 265.00 W/m2
09:55 22.4 °F 14.7 °F 30.46 in NW 9.2 mph 7.1 mph 72% 0.00 in 285.00 W/m2
09:59 22.5 °F 14.8 °F 30.46 in NNW 11.5 mph 7.6 mph 72% 0.00 in 656.00 W/m2
10:04 22.9 °F 15.2 °F 30.46 in North 10.4 mph 6.4 mph 72% 0.00 in 431.00 W/m2
10:09 22.9 °F 14.9 °F 30.47 in NNW 10.4 mph 6.7 mph 71% 0.00 in 341.00 W/m2
10:14 23.3 °F 15.9 °F 30.47 in NNW 10.0 mph 5.8 mph 73% 0.00 in 420.00 W/m2
10:19 23.6 °F 15.9 °F 30.47 in NNW 9.2 mph 4.6 mph 72% 0.00 in 534.00 W/m2
10:24 23.6 °F 15.9 °F 30.47 in NNW 12.7 mph 7.9 mph 72% 0.00 in 304.00 W/m2
10:29 23.8 °F 16.1 °F 30.48 in NW 9.2 mph 4.1 mph 72% 0.00 in 294.00 W/m2
10:34 23.6 °F 15.6 °F 30.48 in NW 11.5 mph 7.7 mph 71% 0.00 in 288.00 W/m2
10:39 23.7 °F 15.7 °F 30.48 in NW 12.7 mph 7.3 mph 71% 0.00 in 350.00 W/m2
10:45 23.8 °F 15.4 °F 30.48 in North 10.4 mph 6.0 mph 70% 0.00 in 383.00 W/m2
10:49 24.1 °F 16.4 °F 30.48 in NW 11.5 mph 7.2 mph 72% 0.00 in 341.00 W/m2
10:54 24.4 °F 16.7 °F 30.48 in NNW 8.1 mph 4.4 mph 72% 0.00 in 278.00 W/m2
10:59 24.6 °F 16.2 °F 30.48 in NNW 12.7 mph 7.8 mph 70% 0.00 in 427.00 W/m2
11:04 24.6 °F 15.9 °F 30.48 in North 12.7 mph 6.7 mph 69% 0.00 in 320.00 W/m2
11:09 24.7 °F 16.0 °F 30.48 in WNW 11.5 mph 4.7 mph 69% 0.00 in 443.00 W/m2
11:14 24.8 °F 16.4 °F 30.48 in NW 10.4 mph 6.0 mph 70% 0.00 in 591.00 W/m2
11:19 25.2 °F 16.8 °F 30.48 in NNW 12.0 mph 8.1 mph 70% 0.00 in 594.00 W/m2
11:24 25.4 °F 16.6 °F 30.48 in NW 8.1 mph 3.8 mph 69% 0.00 in 545.00 W/m2
11:30 25.8 °F 17.4 °F 30.48 in NW 9.2 mph 6.4 mph 70% 0.00 in 538.00 W/m2
11:34 25.8 °F 17.0 °F 30.48 in NW 11.5 mph 7.2 mph 69% 0.00 in 536.00 W/m2
11:39 25.9 °F 17.1 °F 30.48 in NW 10.4 mph 5.5 mph 69% 0.00 in 536.00 W/m2
11:44 26.0 °F 17.2 °F 30.48 in WNW 8.1 mph 6.3 mph 69% 0.00 in 538.00 W/m2
11:49 26.1 °F 17.3 °F 30.47 in WNW 10.4 mph 5.4 mph 69% 0.00 in 536.00 W/m2
11:54 26.2 °F 17.1 °F 30.48 in North 10.4 mph 6.5 mph 68% 0.00 in 533.00 W/m2
11:59 26.2 °F 17.4 °F 30.47 in WNW 11.5 mph 6.9 mph 69% 0.00 in 533.00 W/m2
12:04 26.2 °F 17.1 °F 30.47 in NW 11.5 mph 5.5 mph 68% 0.00 in 526.00 W/m2
12:09 26.4 °F 17.6 °F 30.47 in WNW 9.2 mph 6.8 mph 69% 0.00 in 524.00 W/m2
12:14 26.6 °F 17.8 °F 30.47 in North 11.5 mph 5.6 mph 69% 0.00 in 522.00 W/m2
12:19 26.7 °F 17.2 °F 30.47 in NW 9.2 mph 6.3 mph 67% 0.00 in 522.00 W/m2
12:24 26.9 °F 17.4 °F 30.47 in NNW 9.2 mph 6.6 mph 67% 0.00 in 517.00 W/m2
12:29 26.8 °F 17.0 °F 30.47 in WNW 11.5 mph 7.2 mph 66% 0.00 in 512.00 W/m2
12:34 27.0 °F 17.1 °F 30.47 in North 10.4 mph 5.3 mph 66% 0.00 in 506.00 W/m2
12:39 27.0 °F 16.8 °F 30.47 in WNW 10.4 mph 7.3 mph 65% 0.00 in 504.00 W/m2
12:44 27.1 °F 16.9 °F 30.46 in WNW 9.2 mph 6.9 mph 65% 0.00 in 499.00 W/m2
12:49 27.3 °F 17.1 °F 30.46 in NW 8.1 mph 3.5 mph 65% 0.00 in 496.00 W/m2
12:54 27.4 °F 16.8 °F 30.46 in NNW 9.2 mph 5.3 mph 64% 0.00 in 487.00 W/m2
12:59 27.2 °F 16.6 °F 30.46 in NNW 10.4 mph 6.3 mph 64% 0.00 in 482.00 W/m2
13:04 27.3 °F 16.7 °F 30.46 in North 10.4 mph 6.2 mph 64% 0.00 in 476.00 W/m2
13:09 27.4 °F 17.2 °F 30.45 in NNW 8.1 mph 3.7 mph 65% 0.00 in 468.00 W/m2
13:14 27.9 °F 17.3 °F 30.45 in North 9.2 mph 5.3 mph 64% 0.00 in 461.00 W/m2
13:19 27.8 °F 17.2 °F 30.45 in NW 10.4 mph 4.5 mph 64% 0.00 in 455.00 W/m2
13:25 27.7 °F 16.7 °F 30.45 in NNW 11.5 mph 6.1 mph 63% 0.00 in 445.00 W/m2
13:29 27.6 °F 16.3 °F 30.45 in NNW 12.7 mph 7.2 mph 62% 0.00 in 431.00 W/m2
13:34 27.5 °F 16.5 °F 30.45 in North 10.4 mph 5.0 mph 63% 0.00 in 420.00 W/m2
13:39 27.8 °F 16.5 °F 30.46 in WNW 9.0 mph 6.0 mph 62% 0.00 in 417.00 W/m2
13:44 27.7 °F 16.4 °F 30.45 in North 5.8 mph 4.1 mph 62% 0.00 in 410.00 W/m2
13:49 27.8 °F 16.5 °F 30.45 in WNW 11.5 mph 5.2 mph 62% 0.00 in 397.00 W/m2
13:54 27.9 °F 16.6 °F 30.45 in NW 12.7 mph 4.8 mph 62% 0.00 in 388.00 W/m2
13:59 28.2 °F 17.6 °F 30.45 in NNW 8.1 mph 3.4 mph 64% 0.00 in 378.00 W/m2
14:04 28.2 °F 17.2 °F 30.45 in North 10.4 mph 5.0 mph 63% 0.00 in 367.00 W/m2
14:09 28.1 °F 16.7 °F 30.45 in North 11.5 mph 6.7 mph 62% 0.00 in 357.00 W/m2
14:14 28.0 °F 16.6 °F 30.45 in WNW 10.0 mph 5.3 mph 62% 0.00 in 345.00 W/m2
14:19 28.1 °F 16.7 °F 30.45 in WNW 5.0 mph 5.2 mph 62% 0.00 in 334.00 W/m2
14:24 28.1 °F 16.0 °F 30.45 in NW 7.0 mph 5.8 mph 60% 0.00 in 325.00 W/m2
14:29 28.1 °F 16.4 °F 30.45 in NW 5.8 mph 4.9 mph 61% 0.00 in 313.00 W/m2
14:34 28.2 °F 16.5 °F 30.45 in NNW 8.1 mph 4.7 mph 61% 0.00 in 301.00 W/m2
14:39 28.2 °F 16.5 °F 30.46 in WNW 11.5 mph 5.2 mph 61% 0.00 in 288.00 W/m2
14:44 28.2 °F 16.5 °F 30.46 in North 8.1 mph 5.9 mph 61% 0.00 in 274.00 W/m2
14:49 28.0 °F 16.3 °F 30.46 in North 8.1 mph 4.1 mph 61% 0.00 in 258.00 W/m2
14:54 28.2 °F 16.1 °F 30.47 in NW 8.1 mph 4.0 mph 60% 0.00 in 244.00 W/m2
14:59 28.1 °F 16.0 °F 30.47 in WNW 6.9 mph 5.5 mph 60% 0.00 in 227.00 W/m2
15:04 28.1 °F 16.0 °F 30.47 in NW 4.6 mph 4.8 mph 60% 0.00 in 227.00 W/m2
15:09 28.1 °F 16.0 °F 30.47 in NW 6.9 mph 3.4 mph 60% 0.00 in 192.00 W/m2
15:14 28.1 °F 15.6 °F 30.47 in WNW 9.2 mph 5.5 mph 59% 0.00 in 174.00 W/m2
15:19 28.1 °F 15.6 °F 30.47 in North 4.6 mph 1.9 mph 59% 0.00 in 156.00 W/m2
15:25 28.1 °F 16.0 °F 30.47 in NW 8.1 mph 4.0 mph 60% 0.00 in 139.00 W/m2
15:29 27.8 °F 15.7 °F 30.48 in NW 9.0 mph 4.6 mph 60% 0.00 in 125.00 W/m2
15:34 27.5 °F 15.4 °F 30.47 in North 10.4 mph 4.2 mph 60% 0.00 in 107.00 W/m2
15:39 27.5 °F 15.4 °F 30.47 in WNW 10.4 mph 3.8 mph 60% 0.00 in 91.00 W/m2
15:44 27.4 °F 15.3 °F 30.48 in NNW 8.1 mph 3.3 mph 60% 0.00 in 77.00 W/m2
15:49 27.2 °F 15.5 °F 30.48 in NNW 8.1 mph 5.1 mph 61% 0.00 in 56.00 W/m2
15:54 26.9 °F 15.6 °F 30.48 in NW 5.0 mph 4.4 mph 62% 0.00 in 21.00 W/m2
15:59 26.7 °F 15.4 °F 30.48 in North 8.1 mph 5.4 mph 62% 0.00 in 19.00 W/m2
16:04 26.5 °F 15.2 °F 30.48 in West 8.1 mph 4.1 mph 62% 0.00 in 18.00 W/m2
16:10 26.4 °F 15.5 °F 30.48 in NNW 6.9 mph 3.5 mph 63% 0.00 in 16.00 W/m2
16:14 26.3 °F 15.8 °F 30.48 in North 5.0 mph 2.9 mph 64% 0.00 in 12.00 W/m2
16:19 26.1 °F 15.2 °F 30.48 in NW 8.1 mph 4.2 mph 63% 0.00 in 11.00 W/m2
16:24 25.9 °F 15.0 °F 30.48 in NNW 11.5 mph 4.8 mph 63% 0.00 in 9.00 W/m2
16:29 25.7 °F 14.8 °F 30.48 in NW 6.9 mph 4.2 mph 63% 0.00 in 5.00 W/m2
16:34 25.6 °F 15.1 °F 30.48 in WNW 5.0 mph 3.8 mph 64% 0.00 in 0.00 W/m2
16:39 25.4 °F 14.9 °F 30.48 in North 3.5 mph 3.5 mph 64% 0.00 in 0.00 W/m2
16:44 25.2 °F 15.1 °F 30.48 in North 5.8 mph 3.6 mph 65% 0.00 in 0.00 W/m2
16:49 25.1 °F 15.3 °F 30.48 in WNW 4.0 mph 4.0 mph 66% 0.00 in 0.00 W/m2
16:54 25.0 °F 15.2 °F 30.48 in WNW 5.8 mph 3.6 mph 66% 0.00 in 0.00 W/m2
16:59 24.9 °F 15.1 °F 30.48 in North 1.2 mph 1.0 mph 66% 0.00 in 0.00 W/m2
17:04 24.7 °F 15.3 °F 30.48 in North 4.6 mph 2.8 mph 67% 0.00 in 0.00 W/m2
17:09 24.5 °F 15.1 °F 30.48 in North 3.5 mph 2.7 mph 67% 0.00 in 0.00 W/m2
17:14 24.4 °F 15.3 °F 30.48 in North 3.5 mph 1.9 mph 68% 0.00 in 0.00 W/m2
17:20 24.3 °F 15.3 °F 30.48 in North 3.5 mph 2.3 mph 68% 0.00 in 0.00 W/m2
17:24 24.2 °F 15.5 °F 30.48 in NW 4.6 mph 3.0 mph 69% 0.00 in 0.00 W/m2
17:29 24.0 °F 15.3 °F 30.48 in NW 4.6 mph 2.7 mph 69% 0.00 in 0.00 W/m2
17:34 24.0 °F 15.3 °F 30.48 in NW 3.5 mph 3.2 mph 69% 0.00 in 0.00 W/m2
17:39 24.0 °F 15.3 °F 30.48 in NNW 5.0 mph 2.2 mph 69% 0.00 in 0.00 W/m2
17:45 23.9 °F 15.5 °F 30.48 in NW 4.6 mph 2.9 mph 70% 0.00 in 0.00 W/m2
17:49 23.8 °F 15.1 °F 30.48 in WNW 3.5 mph 2.8 mph 69% 0.00 in 0.00 W/m2
17:54 23.8 °F 15.1 °F 30.48 in WNW 5.0 mph 3.5 mph 69% 0.00 in 0.00 W/m2
17:59 23.6 °F 15.2 °F 30.48 in WNW 4.6 mph 2.4 mph 70% 0.00 in 0.00 W/m2
18:04 23.5 °F 15.1 °F 30.48 in WNW 3.5 mph 2.5 mph 70% 0.00 in 0.00 W/m2
18:09 23.4 °F 15.1 °F 30.49 in WNW 2.3 mph 2.5 mph 70% 0.00 in 0.00 W/m2
18:15 23.2 °F 14.9 °F 30.49 in WNW 3.5 mph 1.5 mph 70% 0.00 in 0.00 W/m2
18:19 23.1 °F 15.1 °F 30.49 in NNW 4.6 mph 1.7 mph 71% 0.00 in 0.00 W/m2
18:24 23.0 °F 15.0 °F 30.49 in North 3.5 mph 1.2 mph 71% 0.00 in 0.00 W/m2
18:29 22.9 °F 14.9 °F 30.50 in WNW 2.3 mph 1.8 mph 71% 0.00 in 0.00 W/m2
18:34 22.9 °F 14.9 °F 30.50 in NW 3.5 mph 1.9 mph 71% 0.00 in 0.00 W/m2
18:39 22.7 °F 14.7 °F 30.50 in NW 3.5 mph 2.2 mph 71% 0.00 in 0.00 W/m2
18:44 22.7 °F 14.7 °F 30.50 in NW 3.5 mph 2.0 mph 71% 0.00 in 0.00 W/m2
18:49 22.7 °F 14.7 °F 30.51 in NW 3.5 mph 1.6 mph 71% 0.00 in 0.00 W/m2
18:54 22.6 °F 14.9 °F 30.51 in WNW 4.6 mph 2.5 mph 72% 0.00 in 0.00 W/m2
18:59 22.5 °F 14.8 °F 30.51 in NW 2.3 mph 0.9 mph 72% 0.00 in 0.00 W/m2
19:05 22.4 °F 14.7 °F 30.51 in North 2.3 mph 0.8 mph 72% 0.00 in 0.00 W/m2
19:09 22.4 °F 14.7 °F 30.51 in WNW 2.3 mph 0.5 mph 72% 0.00 in 0.00 W/m2
19:14 22.3 °F 14.6 °F 30.51 in NW 2.3 mph 0.8 mph 72% 0.00 in 0.00 W/m2
19:19 22.2 °F 14.5 °F 30.51 in NW 2.0 mph 0.7 mph 72% 0.00 in 0.00 W/m2
19:24 22.1 °F 14.4 °F 30.51 in NW 2.3 mph 1.7 mph 72% 0.00 in 0.00 W/m2
19:29 22.1 °F 14.8 °F 30.51 in NW 2.3 mph 0.5 mph 73% 0.00 in 0.00 W/m2
19:34 22.1 °F 14.8 °F 30.51 in North 3.5 mph 1.5 mph 73% 0.00 in 0.00 W/m2
19:39 22.0 °F 14.7 °F 30.51 in NW 2.3 mph   73% 0.00 in 0.00 W/m2
19:44 22.0 °F 14.7 °F 30.52 in Calm     73% 0.00 in 0.00 W/m2
19:49 22.0 °F 14.7 °F 30.52 in Calm     73% 0.00 in 0.00 W/m2
19:54 22.0 °F 14.7 °F 30.52 in Calm     73% 0.00 in 0.00 W/m2
19:59 21.9 °F 14.6 °F 30.52 in Calm     73% 0.00 in 0.00 W/m2
20:04 21.9 °F 14.6 °F 30.52 in Calm     73% 0.00 in 0.00 W/m2
20:09 21.9 °F 14.6 °F 30.52 in Calm     73% 0.00 in 0.00 W/m2
20:14 22.0 °F 14.7 °F 30.52 in WNW 2.3 mph 0.4 mph 73% 0.00 in 0.00 W/m2
20:19 22.0 °F 14.7 °F 30.53 in NW 1.2 mph   73% 0.00 in 0.00 W/m2
20:24 22.0 °F 14.7 °F 30.53 in NW 1.2 mph 0.6 mph 73% 0.00 in 0.00 W/m2
20:29 22.0 °F 14.7 °F 30.53 in NW 1.2 mph   73% 0.00 in 0.00 W/m2
20:34 21.9 °F 14.6 °F 30.53 in NW 2.3 mph   73% 0.00 in 0.00 W/m2
20:39 21.9 °F 14.6 °F 30.53 in NW 2.3 mph 0.6 mph 73% 0.00 in 0.00 W/m2
20:44 21.9 °F 14.6 °F 30.53 in NW 2.3 mph 0.2 mph 73% 0.00 in 0.00 W/m2
20:49 22.0 °F 14.7 °F 30.54 in Calm     73% 0.00 in 0.00 W/m2
20:54 22.0 °F 14.7 °F 30.54 in NW 1.2 mph   73% 0.00 in 0.00 W/m2
20:59 22.0 °F 14.7 °F 30.54 in North 3.5 mph 0.8 mph 73% 0.00 in 0.00 W/m2
21:04 22.1 °F 14.8 °F 30.54 in WNW 2.3 mph 0.6 mph 73% 0.00 in 0.00 W/m2
21:09 22.2 °F 14.9 °F 30.54 in North 2.3 mph 0.2 mph 73% 0.00 in 0.00 W/m2
21:14 22.3 °F 15.0 °F 30.54 in WSW 4.0 mph 1.1 mph 73% 0.00 in 0.00 W/m2
21:19 22.3 °F 14.6 °F 30.54 in WSW 2.3 mph 1.8 mph 72% 0.00 in 0.00 W/m2
21:25 22.3 °F 14.6 °F 30.54 in North 3.5 mph 0.8 mph 72% 0.00 in 0.00 W/m2
21:29 22.2 °F 14.5 °F 30.54 in West 3.5 mph 0.2 mph 72% 0.00 in 0.00 W/m2
21:34 22.2 °F 14.5 °F 30.54 in WNW 3.5 mph 1.4 mph 72% 0.00 in 0.00 W/m2
21:39 22.3 °F 14.6 °F 30.55 in WNW 2.0 mph 0.7 mph 72% 0.00 in 0.00 W/m2
21:44 22.3 °F 14.6 °F 30.55 in North 3.5 mph 0.3 mph 72% 0.00 in 0.00 W/m2
21:49 22.4 °F 14.7 °F 30.55 in West 3.5 mph 1.6 mph 72% 0.00 in 0.00 W/m2
21:54 22.3 °F 14.6 °F 30.55 in North 3.5 mph 1.5 mph 72% 0.00 in 0.00 W/m2
21:59 22.4 °F 14.7 °F 30.55 in West 3.5 mph 1.0 mph 72% 0.00 in 0.00 W/m2
22:04 22.3 °F 14.3 °F 30.56 in North 3.0 mph 0.8 mph 71% 0.00 in 0.00 W/m2
22:09 22.0 °F 14.3 °F 30.56 in WSW 2.3 mph 0.8 mph 72% 0.00 in 0.00 W/m2
22:14 21.9 °F 14.3 °F 30.56 in North 2.3 mph 1.0 mph 72% 0.00 in 0.00 W/m2
22:19 21.9 °F 14.6 °F 30.56 in West 2.3 mph 0.6 mph 73% 0.00 in 0.00 W/m2
22:24 21.9 °F 14.3 °F 30.56 in North 3.5 mph 2.0 mph 72% 0.00 in 0.00 W/m2
22:29 22.0 °F 14.3 °F 30.56 in West 3.5 mph 1.8 mph 72% 0.00 in 0.00 W/m2
22:35 22.1 °F 14.4 °F 30.56 in West 3.5 mph 1.6 mph 72% 0.00 in 0.00 W/m2
22:39 22.2 °F 14.2 °F 30.55 in WSW 3.5 mph 1.3 mph 71% 0.00 in 0.00 W/m2
22:44 22.1 °F 14.1 °F 30.55 in West 1.2 mph 0.3 mph 71% 0.00 in 0.00 W/m2
22:49 22.0 °F 14.3 °F 30.55 in North 3.5 mph 1.3 mph 72% 0.00 in 0.00 W/m2
22:54 21.9 °F 14.3 °F 30.55 in WSW 3.5 mph 1.6 mph 72% 0.00 in 0.00 W/m2
22:59 21.6 °F 14.3 °F 30.55 in WSW 3.5 mph 1.0 mph 73% 0.00 in 0.00 W/m2
23:04 21.3 °F 14.0 °F 30.55 in WSW 2.3 mph 1.6 mph 73% 0.00 in 0.00 W/m2
23:09 21.2 °F 13.9 °F 30.55 in WSW 2.3 mph 0.7 mph 73% 0.00 in 0.00 W/m2
23:14 21.1 °F 14.1 °F 30.55 in WSW 2.3 mph 0.4 mph 74% 0.00 in 0.00 W/m2
23:20 21.0 °F 14.3 °F 30.55 in WSW 2.3 mph 0.4 mph 75% 0.00 in 0.00 W/m2
23:24 20.9 °F 14.2 °F 30.56 in WSW 2.3 mph 1.3 mph 75% 0.00 in 0.00 W/m2
23:30 20.9 °F 14.2 °F 30.55 in WSW 2.3 mph 0.9 mph 75% 0.00 in 0.00 W/m2
23:34 20.8 °F 14.4 °F 30.55 in WSW 2.3 mph 0.7 mph 76% 0.00 in 0.00 W/m2
23:40 20.8 °F 14.4 °F 30.56 in West 3.5 mph 1.5 mph 76% 0.00 in 0.00 W/m2
23:44 20.9 °F 14.5 °F 30.56 in North 3.5 mph 2.2 mph 76% 0.00 in 0.00 W/m2
23:49 20.9 °F 14.5 °F 30.56 in West 3.5 mph 0.5 mph 76% 0.00 in 0.00 W/m2
23:54 21.0 °F 14.3 °F 30.56 in West 2.3 mph 0.3 mph 75% 0.00 in 0.00 W/m2
23:59 21.0 °F 14.3 °F 30.56 in WNW 2.3 mph 0.5 mph 75% 0.00 in 0.00 W/m2
Bourbonnais, Illinois, USA
Compliments of Weather Underground - 4 mb